sensor_id;sensor_type;location;lat;lon;timestamp;P1;durP1;ratioP1;P2;durP2;ratioP2
57443;SDS011;43289;52.962;6.196;2023-07-31T00:00:13;9.00;;;5.22;;
57443;SDS011;43289;52.962;6.196;2023-07-31T00:02:39;7.13;;;4.85;;
57443;SDS011;43289;52.962;6.196;2023-07-31T00:05:05;9.45;;;5.10;;
57443;SDS011;43289;52.962;6.196;2023-07-31T00:07:31;9.55;;;5.93;;
57443;SDS011;43289;52.962;6.196;2023-07-31T00:09:57;7.28;;;4.88;;
57443;SDS011;43289;52.962;6.196;2023-07-31T00:12:23;9.98;;;4.65;;
57443;SDS011;43289;52.962;6.196;2023-07-31T00:14:49;11.02;;;5.20;;
57443;SDS011;43289;52.962;6.196;2023-07-31T00:17:14;7.88;;;5.03;;
57443;SDS011;43289;52.962;6.196;2023-07-31T00:19:41;9.75;;;5.82;;
57443;SDS011;43289;52.962;6.196;2023-07-31T00:22:08;8.73;;;5.45;;
57443;SDS011;43289;52.962;6.196;2023-07-31T00:24:33;7.20;;;5.32;;
57443;SDS011;43289;52.962;6.196;2023-07-31T00:26:59;10.00;;;5.78;;
57443;SDS011;43289;52.962;6.196;2023-07-31T00:29:24;8.52;;;5.00;;
57443;SDS011;43289;52.962;6.196;2023-07-31T00:31:51;7.75;;;5.05;;
57443;SDS011;43289;52.962;6.196;2023-07-31T00:34:16;9.30;;;5.22;;
57443;SDS011;43289;52.962;6.196;2023-07-31T00:36:42;7.13;;;4.88;;
57443;SDS011;43289;52.962;6.196;2023-07-31T00:39:08;8.50;;;5.53;;
57443;SDS011;43289;52.962;6.196;2023-07-31T00:41:33;7.78;;;4.70;;
57443;SDS011;43289;52.962;6.196;2023-07-31T00:43:59;6.82;;;4.20;;
57443;SDS011;43289;52.962;6.196;2023-07-31T00:46:27;8.77;;;5.43;;
57443;SDS011;43289;52.962;6.196;2023-07-31T00:48:53;8.23;;;5.00;;
57443;SDS011;43289;52.962;6.196;2023-07-31T00:51:21;6.65;;;4.30;;
57443;SDS011;43289;52.962;6.196;2023-07-31T00:53:47;7.25;;;3.75;;
57443;SDS011;43289;52.962;6.196;2023-07-31T00:56:14;4.72;;;2.95;;
57443;SDS011;43289;52.962;6.196;2023-07-31T00:58:41;5.32;;;3.00;;
57443;SDS011;43289;52.962;6.196;2023-07-31T01:01:09;5.53;;;3.22;;
57443;SDS011;43289;52.962;6.196;2023-07-31T01:03:38;4.65;;;2.17;;
57443;SDS011;43289;52.962;6.196;2023-07-31T01:08:52;3.28;;;1.80;;
57443;SDS011;43289;52.962;6.196;2023-07-31T01:11:33;2.90;;;1.80;;
57443;SDS011;43289;52.962;6.196;2023-07-31T01:14:03;3.65;;;2.20;;
57443;SDS011;43289;52.962;6.196;2023-07-31T01:16:29;3.15;;;1.83;;
57443;SDS011;43289;52.962;6.196;2023-07-31T01:18:56;4.35;;;2.20;;
57443;SDS011;43289;52.962;6.196;2023-07-31T01:24:08;3.78;;;1.70;;
57443;SDS011;43289;52.962;6.196;2023-07-31T01:26:39;5.10;;;1.85;;
57443;SDS011;43289;52.962;6.196;2023-07-31T01:29:23;2.38;;;1.50;;
57443;SDS011;43289;52.962;6.196;2023-07-31T01:31:57;2.58;;;1.45;;
57443;SDS011;43289;52.962;6.196;2023-07-31T01:34:28;7.15;;;1.85;;
57443;SDS011;43289;52.962;6.196;2023-07-31T01:36:55;1.50;;;1.15;;
57443;SDS011;43289;52.962;6.196;2023-07-31T01:39:21;1.95;;;1.10;;
57443;SDS011;43289;52.962;6.196;2023-07-31T01:41:47;2.03;;;1.10;;
57443;SDS011;43289;52.962;6.196;2023-07-31T01:44:12;2.40;;;1.30;;
57443;SDS011;43289;52.962;6.196;2023-07-31T01:46:38;2.03;;;1.08;;
57443;SDS011;43289;52.962;6.196;2023-07-31T01:49:05;2.20;;;1.10;;
57443;SDS011;43289;52.962;6.196;2023-07-31T01:51:31;3.22;;;0.93;;
57443;SDS011;43289;52.962;6.196;2023-07-31T01:54:02;1.73;;;0.95;;
57443;SDS011;43289;52.962;6.196;2023-07-31T01:56:30;2.22;;;0.88;;
57443;SDS011;43289;52.962;6.196;2023-07-31T01:58:55;0.85;;;0.75;;
57443;SDS011;43289;52.962;6.196;2023-07-31T02:01:21;1.00;;;0.80;;
57443;SDS011;43289;52.962;6.196;2023-07-31T02:03:47;2.53;;;1.00;;
57443;SDS011;43289;52.962;6.196;2023-07-31T02:06:16;1.88;;;0.95;;
57443;SDS011;43289;52.962;6.196;2023-07-31T02:08:41;1.77;;;1.05;;
57443;SDS011;43289;52.962;6.196;2023-07-31T02:11:07;1.63;;;1.30;;
57443;SDS011;43289;52.962;6.196;2023-07-31T02:13:33;2.55;;;1.50;;
57443;SDS011;43289;52.962;6.196;2023-07-31T02:15:59;3.90;;;2.00;;
57443;SDS011;43289;52.962;6.196;2023-07-31T02:18:24;3.28;;;1.88;;
57443;SDS011;43289;52.962;6.196;2023-07-31T02:20:50;2.38;;;1.30;;
57443;SDS011;43289;52.962;6.196;2023-07-31T02:23:17;1.77;;;1.23;;
57443;SDS011;43289;52.962;6.196;2023-07-31T02:25:44;3.90;;;1.60;;
57443;SDS011;43289;52.962;6.196;2023-07-31T02:28:10;4.22;;;1.50;;
57443;SDS011;43289;52.962;6.196;2023-07-31T02:30:36;2.90;;;1.58;;
57443;SDS011;43289;52.962;6.196;2023-07-31T02:33:04;3.58;;;1.42;;
57443;SDS011;43289;52.962;6.196;2023-07-31T02:35:30;4.00;;;1.80;;
57443;SDS011;43289;52.962;6.196;2023-07-31T02:40:28;3.78;;;1.60;;
57443;SDS011;43289;52.962;6.196;2023-07-31T02:42:57;4.85;;;2.00;;
57443;SDS011;43289;52.962;6.196;2023-07-31T02:45:28;5.03;;;2.17;;
57443;SDS011;43289;52.962;6.196;2023-07-31T02:47:54;5.18;;;2.08;;
57443;SDS011;43289;52.962;6.196;2023-07-31T02:50:20;4.30;;;2.17;;
57443;SDS011;43289;52.962;6.196;2023-07-31T02:52:46;4.43;;;1.98;;
57443;SDS011;43289;52.962;6.196;2023-07-31T02:55:12;3.65;;;2.08;;
57443;SDS011;43289;52.962;6.196;2023-07-31T02:57:38;4.78;;;1.67;;
57443;SDS011;43289;52.962;6.196;2023-07-31T03:00:03;3.38;;;1.50;;
57443;SDS011;43289;52.962;6.196;2023-07-31T03:02:31;3.85;;;1.70;;
57443;SDS011;43289;52.962;6.196;2023-07-31T03:04:58;4.38;;;1.83;;
57443;SDS011;43289;52.962;6.196;2023-07-31T03:07:24;3.22;;;1.60;;
57443;SDS011;43289;52.962;6.196;2023-07-31T03:09:50;3.38;;;1.70;;
57443;SDS011;43289;52.962;6.196;2023-07-31T03:12:15;6.57;;;2.47;;
57443;SDS011;43289;52.962;6.196;2023-07-31T03:14:41;2.03;;;1.42;;
57443;SDS011;43289;52.962;6.196;2023-07-31T03:17:06;3.22;;;1.60;;
57443;SDS011;43289;52.962;6.196;2023-07-31T03:19:32;2.45;;;1.40;;
57443;SDS011;43289;52.962;6.196;2023-07-31T03:22:01;4.60;;;1.88;;
57443;SDS011;43289;52.962;6.196;2023-07-31T03:24:28;2.72;;;1.60;;
57443;SDS011;43289;52.962;6.196;2023-07-31T03:26:54;3.25;;;1.60;;
57443;SDS011;43289;52.962;6.196;2023-07-31T03:29:20;3.25;;;1.70;;
57443;SDS011;43289;52.962;6.196;2023-07-31T03:31:45;4.20;;;2.45;;
57443;SDS011;43289;52.962;6.196;2023-07-31T03:34:11;2.33;;;1.23;;
57443;SDS011;43289;52.962;6.196;2023-07-31T03:36:36;4.25;;;1.70;;
57443;SDS011;43289;52.962;6.196;2023-07-31T03:39:02;6.55;;;2.13;;
57443;SDS011;43289;52.962;6.196;2023-07-31T03:41:28;5.53;;;1.80;;
57443;SDS011;43289;52.962;6.196;2023-07-31T03:43:53;4.85;;;1.77;;
57443;SDS011;43289;52.962;6.196;2023-07-31T03:46:21;4.93;;;1.88;;
57443;SDS011;43289;52.962;6.196;2023-07-31T03:48:47;6.97;;;2.58;;
57443;SDS011;43289;52.962;6.196;2023-07-31T03:51:13;5.07;;;2.22;;
57443;SDS011;43289;52.962;6.196;2023-07-31T03:53:39;5.18;;;2.70;;
57443;SDS011;43289;52.962;6.196;2023-07-31T03:56:05;3.05;;;1.75;;
57443;SDS011;43289;52.962;6.196;2023-07-31T03:58:31;4.50;;;1.95;;
57443;SDS011;43289;52.962;6.196;2023-07-31T04:00:57;6.50;;;2.00;;
57443;SDS011;43289;52.962;6.196;2023-07-31T04:03:22;4.22;;;1.83;;
57443;SDS011;43289;52.962;6.196;2023-07-31T04:05:48;3.80;;;2.00;;
57443;SDS011;43289;52.962;6.196;2023-07-31T04:08:14;5.53;;;2.40;;
57443;SDS011;43289;52.962;6.196;2023-07-31T04:10:41;4.93;;;2.17;;
57443;SDS011;43289;52.962;6.196;2023-07-31T04:13:07;3.65;;;1.70;;
57443;SDS011;43289;52.962;6.196;2023-07-31T04:15:34;5.95;;;1.80;;
57443;SDS011;43289;52.962;6.196;2023-07-31T04:18:00;3.10;;;1.70;;
57443;SDS011;43289;52.962;6.196;2023-07-31T04:20:26;4.55;;;1.80;;
57443;SDS011;43289;52.962;6.196;2023-07-31T04:22:51;3.67;;;1.67;;
57443;SDS011;43289;52.962;6.196;2023-07-31T04:25:17;4.15;;;2.03;;
57443;SDS011;43289;52.962;6.196;2023-07-31T04:27:42;3.83;;;1.73;;
57443;SDS011;43289;52.962;6.196;2023-07-31T04:30:08;3.35;;;1.70;;
57443;SDS011;43289;52.962;6.196;2023-07-31T04:32:34;3.85;;;1.63;;
57443;SDS011;43289;52.962;6.196;2023-07-31T04:35:00;3.92;;;1.63;;
57443;SDS011;43289;52.962;6.196;2023-07-31T04:37:26;5.05;;;1.92;;
57443;SDS011;43289;52.962;6.196;2023-07-31T04:39:51;5.65;;;2.30;;
57443;SDS011;43289;52.962;6.196;2023-07-31T04:42:17;6.13;;;2.60;;
57443;SDS011;43289;52.962;6.196;2023-07-31T04:44:42;4.78;;;2.30;;
57443;SDS011;43289;52.962;6.196;2023-07-31T04:47:08;5.93;;;2.47;;
57443;SDS011;43289;52.962;6.196;2023-07-31T04:49:34;5.75;;;2.72;;
57443;SDS011;43289;52.962;6.196;2023-07-31T04:51:59;3.95;;;2.17;;
57443;SDS011;43289;52.962;6.196;2023-07-31T04:54:25;10.88;;;3.33;;
57443;SDS011;43289;52.962;6.196;2023-07-31T04:56:50;8.85;;;3.50;;
57443;SDS011;43289;52.962;6.196;2023-07-31T04:59:17;15.80;;;5.80;;
57443;SDS011;43289;52.962;6.196;2023-07-31T05:01:43;10.25;;;4.20;;
57443;SDS011;43289;52.962;6.196;2023-07-31T05:04:12;15.95;;;6.32;;
57443;SDS011;43289;52.962;6.196;2023-07-31T05:06:39;14.75;;;6.55;;
57443;SDS011;43289;52.962;6.196;2023-07-31T05:09:05;16.80;;;6.88;;
57443;SDS011;43289;52.962;6.196;2023-07-31T05:11:30;24.20;;;8.52;;
57443;SDS011;43289;52.962;6.196;2023-07-31T05:13:56;24.15;;;9.27;;
57443;SDS011;43289;52.962;6.196;2023-07-31T05:19:06;27.17;;;9.37;;
57443;SDS011;43289;52.962;6.196;2023-07-31T05:21:32;30.63;;;10.15;;
57443;SDS011;43289;52.962;6.196;2023-07-31T05:23:57;30.10;;;11.27;;
57443;SDS011;43289;52.962;6.196;2023-07-31T05:26:23;33.50;;;11.55;;
57443;SDS011;43289;52.962;6.196;2023-07-31T05:28:48;28.60;;;9.63;;
57443;SDS011;43289;52.962;6.196;2023-07-31T05:31:14;29.98;;;9.70;;
57443;SDS011;43289;52.962;6.196;2023-07-31T05:33:39;32.38;;;12.23;;
57443;SDS011;43289;52.962;6.196;2023-07-31T05:36:05;31.58;;;10.85;;
57443;SDS011;43289;52.962;6.196;2023-07-31T05:41:24;27.55;;;10.27;;
57443;SDS011;43289;52.962;6.196;2023-07-31T05:43:50;31.30;;;11.45;;
57443;SDS011;43289;52.962;6.196;2023-07-31T05:46:16;34.10;;;9.45;;
57443;SDS011;43289;52.962;6.196;2023-07-31T05:48:42;23.60;;;10.27;;
57443;SDS011;43289;52.962;6.196;2023-07-31T05:51:07;29.42;;;11.40;;
57443;SDS011;43289;52.962;6.196;2023-07-31T05:53:33;25.90;;;9.55;;
57443;SDS011;43289;52.962;6.196;2023-07-31T05:55:58;22.52;;;9.15;;
57443;SDS011;43289;52.962;6.196;2023-07-31T05:58:24;22.58;;;9.88;;
57443;SDS011;43289;52.962;6.196;2023-07-31T06:00:51;22.42;;;7.97;;
57443;SDS011;43289;52.962;6.196;2023-07-31T06:03:16;18.92;;;8.88;;
57443;SDS011;43289;52.962;6.196;2023-07-31T06:05:42;26.77;;;9.52;;
57443;SDS011;43289;52.962;6.196;2023-07-31T06:08:07;23.48;;;7.93;;
57443;SDS011;43289;52.962;6.196;2023-07-31T06:10:33;20.13;;;9.23;;
57443;SDS011;43289;52.962;6.196;2023-07-31T06:12:59;20.27;;;8.95;;
57443;SDS011;43289;52.962;6.196;2023-07-31T06:15:25;22.10;;;7.95;;
57443;SDS011;43289;52.962;6.196;2023-07-31T06:17:56;18.02;;;7.55;;
57443;SDS011;43289;52.962;6.196;2023-07-31T06:20:22;21.42;;;8.32;;
57443;SDS011;43289;52.962;6.196;2023-07-31T06:22:48;21.85;;;7.70;;
57443;SDS011;43289;52.962;6.196;2023-07-31T06:25:13;21.92;;;8.55;;
57443;SDS011;43289;52.962;6.196;2023-07-31T06:27:39;17.23;;;8.27;;
57443;SDS011;43289;52.962;6.196;2023-07-31T06:30:05;22.20;;;7.90;;
57443;SDS011;43289;52.962;6.196;2023-07-31T06:32:31;18.98;;;7.43;;
57443;SDS011;43289;52.962;6.196;2023-07-31T06:34:57;19.63;;;7.30;;
57443;SDS011;43289;52.962;6.196;2023-07-31T06:37:22;16.02;;;6.80;;
57443;SDS011;43289;52.962;6.196;2023-07-31T06:39:48;16.35;;;6.78;;
57443;SDS011;43289;52.962;6.196;2023-07-31T06:42:14;18.58;;;7.15;;
57443;SDS011;43289;52.962;6.196;2023-07-31T06:44:39;22.08;;;6.88;;
57443;SDS011;43289;52.962;6.196;2023-07-31T06:47:05;24.60;;;8.25;;
57443;SDS011;43289;52.962;6.196;2023-07-31T06:49:30;18.83;;;7.35;;
57443;SDS011;43289;52.962;6.196;2023-07-31T06:51:56;21.95;;;6.95;;
57443;SDS011;43289;52.962;6.196;2023-07-31T06:54:21;18.42;;;7.30;;
57443;SDS011;43289;52.962;6.196;2023-07-31T06:56:47;16.13;;;6.57;;
57443;SDS011;43289;52.962;6.196;2023-07-31T06:59:12;22.67;;;7.32;;
57443;SDS011;43289;52.962;6.196;2023-07-31T07:01:38;13.60;;;5.07;;
57443;SDS011;43289;52.962;6.196;2023-07-31T07:04:03;15.23;;;5.65;;
57443;SDS011;43289;52.962;6.196;2023-07-31T07:06:29;9.18;;;4.25;;
57443;SDS011;43289;52.962;6.196;2023-07-31T07:12:11;9.52;;;3.90;;
57443;SDS011;43289;52.962;6.196;2023-07-31T07:14:37;7.43;;;3.00;;
57443;SDS011;43289;52.962;6.196;2023-07-31T07:17:02;6.28;;;3.35;;
57443;SDS011;43289;52.962;6.196;2023-07-31T07:19:28;6.57;;;3.20;;
57443;SDS011;43289;52.962;6.196;2023-07-31T07:21:54;8.48;;;3.22;;
57443;SDS011;43289;52.962;6.196;2023-07-31T07:24:26;8.38;;;2.90;;
57443;SDS011;43289;52.962;6.196;2023-07-31T07:26:51;6.40;;;2.65;;
57443;SDS011;43289;52.962;6.196;2023-07-31T07:29:17;5.95;;;2.15;;
57443;SDS011;43289;52.962;6.196;2023-07-31T07:35:14;4.00;;;2.05;;
57443;SDS011;43289;52.962;6.196;2023-07-31T07:37:40;5.50;;;2.17;;
57443;SDS011;43289;52.962;6.196;2023-07-31T07:40:06;3.80;;;1.92;;
57443;SDS011;43289;52.962;6.196;2023-07-31T07:42:32;3.85;;;2.17;;
57443;SDS011;43289;52.962;6.196;2023-07-31T07:44:57;5.82;;;2.40;;
57443;SDS011;43289;52.962;6.196;2023-07-31T07:47:23;5.38;;;2.20;;
57443;SDS011;43289;52.962;6.196;2023-07-31T07:49:48;6.82;;;2.42;;
57443;SDS011;43289;52.962;6.196;2023-07-31T07:52:17;4.10;;;2.13;;
57443;SDS011;43289;52.962;6.196;2023-07-31T07:54:42;3.38;;;1.73;;
57443;SDS011;43289;52.962;6.196;2023-07-31T07:57:08;5.90;;;2.20;;
57443;SDS011;43289;52.962;6.196;2023-07-31T07:59:33;3.50;;;1.67;;
57443;SDS011;43289;52.962;6.196;2023-07-31T08:01:59;6.82;;;2.22;;
57443;SDS011;43289;52.962;6.196;2023-07-31T08:04:24;3.28;;;1.58;;
57443;SDS011;43289;52.962;6.196;2023-07-31T08:06:50;3.88;;;1.77;;
57443;SDS011;43289;52.962;6.196;2023-07-31T08:09:16;4.22;;;1.63;;
57443;SDS011;43289;52.962;6.196;2023-07-31T08:11:41;2.83;;;1.60;;
57443;SDS011;43289;52.962;6.196;2023-07-31T08:14:07;3.03;;;1.77;;
57443;SDS011;43289;52.962;6.196;2023-07-31T08:16:32;2.75;;;1.52;;
57443;SDS011;43289;52.962;6.196;2023-07-31T08:18:58;4.07;;;1.75;;
57443;SDS011;43289;52.962;6.196;2023-07-31T08:21:24;3.78;;;1.80;;
57443;SDS011;43289;52.962;6.196;2023-07-31T08:23:49;2.22;;;1.38;;
57443;SDS011;43289;52.962;6.196;2023-07-31T08:26:18;2.47;;;1.60;;
57443;SDS011;43289;52.962;6.196;2023-07-31T08:28:44;1.33;;;0.90;;
57443;SDS011;43289;52.962;6.196;2023-07-31T08:31:10;5.32;;;1.63;;
57443;SDS011;43289;52.962;6.196;2023-07-31T08:33:36;1.88;;;1.40;;
57443;SDS011;43289;52.962;6.196;2023-07-31T08:38:41;3.15;;;1.30;;
57443;SDS011;43289;52.962;6.196;2023-07-31T08:41:07;5.20;;;1.30;;
57443;SDS011;43289;52.962;6.196;2023-07-31T08:43:32;3.78;;;1.40;;
57443;SDS011;43289;52.962;6.196;2023-07-31T08:45:58;3.38;;;1.50;;
57443;SDS011;43289;52.962;6.196;2023-07-31T08:48:24;1.73;;;1.15;;
57443;SDS011;43289;52.962;6.196;2023-07-31T08:50:51;3.10;;;1.08;;
57443;SDS011;43289;52.962;6.196;2023-07-31T08:53:18;2.13;;;0.98;;
57443;SDS011;43289;52.962;6.196;2023-07-31T08:55:44;1.42;;;1.05;;
57443;SDS011;43289;52.962;6.196;2023-07-31T08:58:09;2.88;;;1.23;;
57443;SDS011;43289;52.962;6.196;2023-07-31T09:00:37;2.47;;;1.25;;
57443;SDS011;43289;52.962;6.196;2023-07-31T09:03:09;2.92;;;1.25;;
57443;SDS011;43289;52.962;6.196;2023-07-31T09:05:38;1.67;;;0.98;;
57443;SDS011;43289;52.962;6.196;2023-07-31T09:08:08;2.20;;;1.20;;
57443;SDS011;43289;52.962;6.196;2023-07-31T09:10:35;1.23;;;0.88;;
57443;SDS011;43289;52.962;6.196;2023-07-31T09:13:06;2.33;;;0.95;;
57443;SDS011;43289;52.962;6.196;2023-07-31T09:15:32;2.00;;;1.00;;
57443;SDS011;43289;52.962;6.196;2023-07-31T09:17:59;2.33;;;1.02;;
57443;SDS011;43289;52.962;6.196;2023-07-31T09:20:26;1.60;;;0.90;;
57443;SDS011;43289;52.962;6.196;2023-07-31T09:22:52;1.48;;;0.70;;
57443;SDS011;43289;52.962;6.196;2023-07-31T09:25:18;3.88;;;1.02;;
57443;SDS011;43289;52.962;6.196;2023-07-31T09:27:58;1.58;;;1.00;;
57443;SDS011;43289;52.962;6.196;2023-07-31T09:30:25;2.13;;;1.10;;
57443;SDS011;43289;52.962;6.196;2023-07-31T09:32:52;2.15;;;0.73;;
57443;SDS011;43289;52.962;6.196;2023-07-31T09:35:30;0.80;;;0.70;;
57443;SDS011;43289;52.962;6.196;2023-07-31T09:37:58;0.75;;;0.75;;
57443;SDS011;43289;52.962;6.196;2023-07-31T09:40:34;0.80;;;0.80;;
57443;SDS011;43289;52.962;6.196;2023-07-31T09:43:05;1.30;;;0.90;;
57443;SDS011;43289;52.962;6.196;2023-07-31T09:45:36;1.13;;;0.90;;
57443;SDS011;43289;52.962;6.196;2023-07-31T09:48:03;0.98;;;0.85;;
57443;SDS011;43289;52.962;6.196;2023-07-31T09:50:34;1.77;;;0.80;;
57443;SDS011;43289;52.962;6.196;2023-07-31T09:53:08;1.35;;;0.93;;
57443;SDS011;43289;52.962;6.196;2023-07-31T09:55:34;0.82;;;0.73;;
57443;SDS011;43289;52.962;6.196;2023-07-31T09:58:07;1.45;;;0.98;;
57443;SDS011;43289;52.962;6.196;2023-07-31T10:00:34;1.63;;;0.73;;
57443;SDS011;43289;52.962;6.196;2023-07-31T10:03:01;1.00;;;0.70;;
57443;SDS011;43289;52.962;6.196;2023-07-31T10:05:42;1.80;;;1.02;;
57443;SDS011;43289;52.962;6.196;2023-07-31T10:08:15;4.20;;;1.00;;
57443;SDS011;43289;52.962;6.196;2023-07-31T10:10:43;2.15;;;1.00;;
57443;SDS011;43289;52.962;6.196;2023-07-31T10:13:10;3.40;;;0.98;;
57443;SDS011;43289;52.962;6.196;2023-07-31T10:15:37;0.77;;;0.70;;
57443;SDS011;43289;52.962;6.196;2023-07-31T10:18:03;0.95;;;0.88;;
57443;SDS011;43289;52.962;6.196;2023-07-31T10:20:31;2.28;;;1.38;;
57443;SDS011;43289;52.962;6.196;2023-07-31T10:22:57;1.77;;;1.17;;
57443;SDS011;43289;52.962;6.196;2023-07-31T10:25:24;2.22;;;1.25;;
57443;SDS011;43289;52.962;6.196;2023-07-31T10:27:52;2.47;;;1.10;;
57443;SDS011;43289;52.962;6.196;2023-07-31T10:30:20;3.00;;;1.50;;
57443;SDS011;43289;52.962;6.196;2023-07-31T10:32:50;3.78;;;2.13;;
57443;SDS011;43289;52.962;6.196;2023-07-31T10:35:17;5.97;;;2.85;;
57443;SDS011;43289;52.962;6.196;2023-07-31T10:37:43;5.13;;;2.13;;
57443;SDS011;43289;52.962;6.196;2023-07-31T10:40:10;4.85;;;2.60;;
57443;SDS011;43289;52.962;6.196;2023-07-31T10:42:44;6.53;;;2.53;;
57443;SDS011;43289;52.962;6.196;2023-07-31T10:45:25;5.57;;;2.50;;
57443;SDS011;43289;52.962;6.196;2023-07-31T10:50:27;5.95;;;2.38;;
57443;SDS011;43289;52.962;6.196;2023-07-31T10:52:54;7.00;;;2.60;;
57443;SDS011;43289;52.962;6.196;2023-07-31T10:55:28;5.43;;;2.40;;
57443;SDS011;43289;52.962;6.196;2023-07-31T10:57:55;3.85;;;2.22;;
57443;SDS011;43289;52.962;6.196;2023-07-31T11:00:22;5.38;;;1.90;;
57443;SDS011;43289;52.962;6.196;2023-07-31T11:03:04;5.00;;;1.63;;
57443;SDS011;43289;52.962;6.196;2023-07-31T11:08:12;1.63;;;0.90;;
57443;SDS011;43289;52.962;6.196;2023-07-31T11:10:38;3.33;;;1.02;;
57443;SDS011;43289;52.962;6.196;2023-07-31T11:13:04;1.35;;;0.90;;
57443;SDS011;43289;52.962;6.196;2023-07-31T11:15:30;1.75;;;0.90;;
57443;SDS011;43289;52.962;6.196;2023-07-31T11:17:56;0.82;;;0.63;;
57443;SDS011;43289;52.962;6.196;2023-07-31T11:20:26;0.50;;;0.50;;
57443;SDS011;43289;52.962;6.196;2023-07-31T11:22:54;1.55;;;0.50;;
57443;SDS011;43289;52.962;6.196;2023-07-31T11:25:19;1.20;;;0.60;;
57443;SDS011;43289;52.962;6.196;2023-07-31T11:27:47;0.60;;;0.60;;
57443;SDS011;43289;52.962;6.196;2023-07-31T11:30:18;2.15;;;0.85;;
57443;SDS011;43289;52.962;6.196;2023-07-31T11:32:44;1.08;;;0.80;;
57443;SDS011;43289;52.962;6.196;2023-07-31T11:35:12;1.17;;;0.77;;
57443;SDS011;43289;52.962;6.196;2023-07-31T11:37:41;0.63;;;0.60;;
57443;SDS011;43289;52.962;6.196;2023-07-31T11:40:08;2.45;;;1.05;;
57443;SDS011;43289;52.962;6.196;2023-07-31T11:42:37;1.92;;;1.20;;
57443;SDS011;43289;52.962;6.196;2023-07-31T11:45:06;2.08;;;1.17;;
57443;SDS011;43289;52.962;6.196;2023-07-31T11:47:33;1.25;;;0.90;;
57443;SDS011;43289;52.962;6.196;2023-07-31T11:50:00;1.63;;;1.10;;
57443;SDS011;43289;52.962;6.196;2023-07-31T11:52:27;3.88;;;1.35;;
57443;SDS011;43289;52.962;6.196;2023-07-31T11:55:01;2.50;;;1.30;;
57443;SDS011;43289;52.962;6.196;2023-07-31T11:57:27;3.55;;;1.75;;
57443;SDS011;43289;52.962;6.196;2023-07-31T11:59:53;3.20;;;1.75;;
57443;SDS011;43289;52.962;6.196;2023-07-31T12:02:20;4.95;;;1.92;;
57443;SDS011;43289;52.962;6.196;2023-07-31T12:04:46;3.17;;;1.40;;
57443;SDS011;43289;52.962;6.196;2023-07-31T12:07:13;3.72;;;1.65;;
57443;SDS011;43289;52.962;6.196;2023-07-31T12:09:42;4.93;;;2.08;;
57443;SDS011;43289;52.962;6.196;2023-07-31T12:12:19;6.15;;;2.20;;
57443;SDS011;43289;52.962;6.196;2023-07-31T12:14:48;5.00;;;2.25;;
57443;SDS011;43289;52.962;6.196;2023-07-31T12:17:15;3.80;;;1.67;;
57443;SDS011;43289;52.962;6.196;2023-07-31T12:19:42;4.85;;;1.98;;
57443;SDS011;43289;52.962;6.196;2023-07-31T12:22:11;4.07;;;1.85;;
57443;SDS011;43289;52.962;6.196;2023-07-31T12:24:38;3.70;;;1.67;;
57443;SDS011;43289;52.962;6.196;2023-07-31T12:27:11;3.22;;;1.70;;
57443;SDS011;43289;52.962;6.196;2023-07-31T12:29:38;7.43;;;2.35;;
57443;SDS011;43289;52.962;6.196;2023-07-31T12:32:04;3.38;;;1.77;;
57443;SDS011;43289;52.962;6.196;2023-07-31T12:34:43;4.45;;;2.10;;
57443;SDS011;43289;52.962;6.196;2023-07-31T12:37:08;6.38;;;2.42;;
57443;SDS011;43289;52.962;6.196;2023-07-31T12:39:34;8.63;;;3.42;;
57443;SDS011;43289;52.962;6.196;2023-07-31T12:41:59;6.97;;;3.40;;
57443;SDS011;43289;52.962;6.196;2023-07-31T12:44:25;9.32;;;3.70;;
57443;SDS011;43289;52.962;6.196;2023-07-31T12:46:51;9.05;;;4.05;;
57443;SDS011;43289;52.962;6.196;2023-07-31T12:49:16;7.80;;;4.30;;
57443;SDS011;43289;52.962;6.196;2023-07-31T12:51:42;10.02;;;3.88;;
57443;SDS011;43289;52.962;6.196;2023-07-31T12:54:07;13.90;;;4.10;;
57443;SDS011;43289;52.962;6.196;2023-07-31T12:56:33;11.90;;;4.28;;
57443;SDS011;43289;52.962;6.196;2023-07-31T12:58:58;11.85;;;4.65;;
57443;SDS011;43289;52.962;6.196;2023-07-31T13:01:24;7.75;;;4.05;;
57443;SDS011;43289;52.962;6.196;2023-07-31T13:03:49;11.75;;;4.72;;
57443;SDS011;43289;52.962;6.196;2023-07-31T13:06:15;12.25;;;3.83;;
57443;SDS011;43289;52.962;6.196;2023-07-31T13:08:41;11.02;;;3.60;;
57443;SDS011;43289;52.962;6.196;2023-07-31T13:11:06;9.90;;;3.80;;
57443;SDS011;43289;52.962;6.196;2023-07-31T13:16:30;6.85;;;3.45;;
57443;SDS011;43289;52.962;6.196;2023-07-31T13:18:56;7.75;;;3.25;;
57443;SDS011;43289;52.962;6.196;2023-07-31T13:21:21;9.10;;;3.22;;
57443;SDS011;43289;52.962;6.196;2023-07-31T13:23:47;8.30;;;3.40;;
57443;SDS011;43289;52.962;6.196;2023-07-31T13:26:12;11.55;;;4.00;;
57443;SDS011;43289;52.962;6.196;2023-07-31T13:28:38;9.13;;;3.90;;
57443;SDS011;43289;52.962;6.196;2023-07-31T13:31:03;9.13;;;3.30;;
57443;SDS011;43289;52.962;6.196;2023-07-31T13:33:29;10.15;;;4.07;;
57443;SDS011;43289;52.962;6.196;2023-07-31T13:35:55;9.55;;;3.80;;
57443;SDS011;43289;52.962;6.196;2023-07-31T13:38:20;11.75;;;4.75;;
57443;SDS011;43289;52.962;6.196;2023-07-31T13:40:46;8.90;;;4.20;;
57443;SDS011;43289;52.962;6.196;2023-07-31T13:43:11;7.85;;;3.80;;
57443;SDS011;43289;52.962;6.196;2023-07-31T13:45:37;9.65;;;4.15;;
57443;SDS011;43289;52.962;6.196;2023-07-31T13:48:03;9.55;;;3.80;;
57443;SDS011;43289;52.962;6.196;2023-07-31T13:50:28;8.88;;;3.85;;
57443;SDS011;43289;52.962;6.196;2023-07-31T13:52:54;12.25;;;4.90;;
57443;SDS011;43289;52.962;6.196;2023-07-31T13:55:20;8.90;;;5.00;;
57443;SDS011;43289;52.962;6.196;2023-07-31T13:57:45;10.13;;;4.22;;
57443;SDS011;43289;52.962;6.196;2023-07-31T14:00:18;11.32;;;5.28;;
57443;SDS011;43289;52.962;6.196;2023-07-31T14:02:43;6.70;;;3.92;;
57443;SDS011;43289;52.962;6.196;2023-07-31T14:05:09;12.40;;;5.22;;
57443;SDS011;43289;52.962;6.196;2023-07-31T14:07:35;9.07;;;3.97;;
57443;SDS011;43289;52.962;6.196;2023-07-31T14:10:00;9.85;;;4.55;;
57443;SDS011;43289;52.962;6.196;2023-07-31T14:12:26;15.70;;;4.55;;
57443;SDS011;43289;52.962;6.196;2023-07-31T14:14:51;10.77;;;4.85;;
57443;SDS011;43289;52.962;6.196;2023-07-31T14:17:17;11.52;;;5.15;;
57443;SDS011;43289;52.962;6.196;2023-07-31T14:19:42;8.50;;;4.43;;
57443;SDS011;43289;52.962;6.196;2023-07-31T14:22:08;10.25;;;4.20;;
57443;SDS011;43289;52.962;6.196;2023-07-31T14:24:33;9.23;;;4.57;;
57443;SDS011;43289;52.962;6.196;2023-07-31T14:29:43;6.93;;;3.88;;
57443;SDS011;43289;52.962;6.196;2023-07-31T14:32:08;8.70;;;4.30;;
57443;SDS011;43289;52.962;6.196;2023-07-31T14:34:34;10.02;;;4.32;;
57443;SDS011;43289;52.962;6.196;2023-07-31T14:37:00;9.73;;;4.03;;
57443;SDS011;43289;52.962;6.196;2023-07-31T14:39:25;14.82;;;4.40;;
57443;SDS011;43289;52.962;6.196;2023-07-31T14:41:51;11.02;;;4.25;;
57443;SDS011;43289;52.962;6.196;2023-07-31T14:44:16;9.70;;;3.78;;
57443;SDS011;43289;52.962;6.196;2023-07-31T14:46:42;6.93;;;3.63;;
57443;SDS011;43289;52.962;6.196;2023-07-31T14:49:07;8.65;;;3.78;;
57443;SDS011;43289;52.962;6.196;2023-07-31T14:51:36;6.50;;;3.00;;
57443;SDS011;43289;52.962;6.196;2023-07-31T14:54:02;9.35;;;3.17;;
57443;SDS011;43289;52.962;6.196;2023-07-31T14:56:27;7.32;;;3.47;;
57443;SDS011;43289;52.962;6.196;2023-07-31T14:58:53;9.77;;;3.45;;
57443;SDS011;43289;52.962;6.196;2023-07-31T15:01:18;10.90;;;4.45;;
57443;SDS011;43289;52.962;6.196;2023-07-31T15:03:44;7.13;;;2.78;;
57443;SDS011;43289;52.962;6.196;2023-07-31T15:06:10;11.13;;;3.90;;
57443;SDS011;43289;52.962;6.196;2023-07-31T15:08:37;9.30;;;3.42;;
57443;SDS011;43289;52.962;6.196;2023-07-31T15:11:09;7.82;;;3.03;;
57443;SDS011;43289;52.962;6.196;2023-07-31T15:13:35;7.55;;;3.65;;
57443;SDS011;43289;52.962;6.196;2023-07-31T15:16:01;6.93;;;3.15;;